sensor_id;sensor_type;location;lat;lon;timestamp;temperature;humidity
16305;DHT22;8261;47.678;-122.174;2022-07-11T00:01:35;27.40;99.90
16305;DHT22;8261;47.678;-122.174;2022-07-11T00:04:08;27.20;99.90
16305;DHT22;8261;47.678;-122.174;2022-07-11T00:06:40;27.50;99.90
16305;DHT22;8261;47.678;-122.174;2022-07-11T00:09:12;27.00;99.90
16305;DHT22;8261;47.678;-122.174;2022-07-11T00:11:51;27.00;99.90
16305;DHT22;8261;47.678;-122.174;2022-07-11T00:17:00;27.00;99.90
16305;DHT22;8261;47.678;-122.174;2022-07-11T00:19:35;27.00;99.90
16305;DHT22;8261;47.678;-122.174;2022-07-11T00:22:20;26.80;99.90
16305;DHT22;8261;47.678;-122.174;2022-07-11T00:27:27;27.10;99.90
16305;DHT22;8261;47.678;-122.174;2022-07-11T00:30:00;26.90;99.90
16305;DHT22;8261;47.678;-122.174;2022-07-11T00:32:32;27.00;99.90
16305;DHT22;8261;47.678;-122.174;2022-07-11T00:35:24;26.60;99.90
16305;DHT22;8261;47.678;-122.174;2022-07-11T00:38:38;26.20;99.90
16305;DHT22;8261;47.678;-122.174;2022-07-11T00:41:35;26.40;99.90
16305;DHT22;8261;47.678;-122.174;2022-07-11T00:44:07;26.70;99.90
16305;DHT22;8261;47.678;-122.174;2022-07-11T00:46:39;26.70;99.90
16305;DHT22;8261;47.678;-122.174;2022-07-11T00:49:20;26.60;99.90
16305;DHT22;8261;47.678;-122.174;2022-07-11T00:51:58;26.00;99.90
16305;DHT22;8261;47.678;-122.174;2022-07-11T00:54:30;25.90;99.90
16305;DHT22;8261;47.678;-122.174;2022-07-11T00:57:03;26.00;99.90
16305;DHT22;8261;47.678;-122.174;2022-07-11T00:59:38;26.50;99.90
16305;DHT22;8261;47.678;-122.174;2022-07-11T01:02:09;26.60;99.90
16305;DHT22;8261;47.678;-122.174;2022-07-11T01:04:41;26.90;99.90
16305;DHT22;8261;47.678;-122.174;2022-07-11T01:07:16;27.40;99.90
16305;DHT22;8261;47.678;-122.174;2022-07-11T01:09:48;28.20;99.90
16305;DHT22;8261;47.678;-122.174;2022-07-11T01:12:22;28.20;99.90
16305;DHT22;8261;47.678;-122.174;2022-07-11T01:14:56;28.10;99.90
16305;DHT22;8261;47.678;-122.174;2022-07-11T01:17:30;28.90;99.90
16305;DHT22;8261;47.678;-122.174;2022-07-11T01:20:07;29.20;99.90
16305;DHT22;8261;47.678;-122.174;2022-07-11T01:22:52;29.70;99.90
16305;DHT22;8261;47.678;-122.174;2022-07-11T01:25:48;29.20;99.90
16305;DHT22;8261;47.678;-122.174;2022-07-11T01:28:45;28.60;99.90
16305;DHT22;8261;47.678;-122.174;2022-07-11T01:31:20;29.10;99.90
16305;DHT22;8261;47.678;-122.174;2022-07-11T01:36:53;28.70;99.90
16305;DHT22;8261;47.678;-122.174;2022-07-11T01:39:31;29.10;99.90
16305;DHT22;8261;47.678;-122.174;2022-07-11T01:42:44;29.40;99.90
16305;DHT22;8261;47.678;-122.174;2022-07-11T01:45:17;29.10;99.90
16305;DHT22;8261;47.678;-122.174;2022-07-11T01:47:50;29.30;99.90
16305;DHT22;8261;47.678;-122.174;2022-07-11T01:50:26;29.60;99.90
16305;DHT22;8261;47.678;-122.174;2022-07-11T01:52:59;29.80;99.90
16305;DHT22;8261;47.678;-122.174;2022-07-11T01:55:39;30.40;99.90
16305;DHT22;8261;47.678;-122.174;2022-07-11T01:58:33;30.50;99.90
16305;DHT22;8261;47.678;-122.174;2022-07-11T02:01:07;28.80;99.90
16305;DHT22;8261;47.678;-122.174;2022-07-11T02:03:41;29.20;99.90
16305;DHT22;8261;47.678;-122.174;2022-07-11T02:06:27;29.30;99.90
16305;DHT22;8261;47.678;-122.174;2022-07-11T02:09:14;29.70;99.90
16305;DHT22;8261;47.678;-122.174;2022-07-11T02:11:54;29.70;99.90
16305;DHT22;8261;47.678;-122.174;2022-07-11T02:14:53;29.60;99.90
16305;DHT22;8261;47.678;-122.174;2022-07-11T02:17:26;29.40;99.90
16305;DHT22;8261;47.678;-122.174;2022-07-11T02:20:11;29.10;99.90
16305;DHT22;8261;47.678;-122.174;2022-07-11T02:23:04;28.90;99.90
16305;DHT22;8261;47.678;-122.174;2022-07-11T02:25:38;28.70;99.90
16305;DHT22;8261;47.678;-122.174;2022-07-11T02:30:59;28.20;99.90
16305;DHT22;8261;47.678;-122.174;2022-07-11T02:33:34;28.40;99.90
16305;DHT22;8261;47.678;-122.174;2022-07-11T02:36:22;28.00;99.90
16305;DHT22;8261;47.678;-122.174;2022-07-11T02:39:07;27.50;99.90
16305;DHT22;8261;47.678;-122.174;2022-07-11T02:41:47;26.50;99.90
16305;DHT22;8261;47.678;-122.174;2022-07-11T02:44:21;25.70;99.90
16305;DHT22;8261;47.678;-122.174;2022-07-11T02:47:14;24.90;99.90
16305;DHT22;8261;47.678;-122.174;2022-07-11T02:49:57;24.30;99.90
16305;DHT22;8261;47.678;-122.174;2022-07-11T02:52:44;24.00;99.90
16305;DHT22;8261;47.678;-122.174;2022-07-11T02:55:41;23.80;99.90
16305;DHT22;8261;47.678;-122.174;2022-07-11T02:58:42;23.60;99.90
16305;DHT22;8261;47.678;-122.174;2022-07-11T03:01:14;23.40;99.90
16305;DHT22;8261;47.678;-122.174;2022-07-11T03:03:55;23.30;99.90
16305;DHT22;8261;47.678;-122.174;2022-07-11T03:06:28;23.10;99.90
16305;DHT22;8261;47.678;-122.174;2022-07-11T03:08:59;23.00;99.90
16305;DHT22;8261;47.678;-122.174;2022-07-11T03:11:32;22.90;99.90
16305;DHT22;8261;47.678;-122.174;2022-07-11T03:14:17;22.80;99.90
16305;DHT22;8261;47.678;-122.174;2022-07-11T03:16:48;22.70;99.90
16305;DHT22;8261;47.678;-122.174;2022-07-11T03:22:47;22.50;99.90
16305;DHT22;8261;47.678;-122.174;2022-07-11T03:25:41;22.30;99.90
16305;DHT22;8261;47.678;-122.174;2022-07-11T03:28:30;22.20;99.90
16305;DHT22;8261;47.678;-122.174;2022-07-11T03:31:05;22.20;99.90
16305;DHT22;8261;47.678;-122.174;2022-07-11T03:33:39;22.10;99.90
16305;DHT22;8261;47.678;-122.174;2022-07-11T03:36:33;21.90;99.90
16305;DHT22;8261;47.678;-122.174;2022-07-11T03:39:50;21.90;99.90
16305;DHT22;8261;47.678;-122.174;2022-07-11T03:42:35;21.70;99.90
16305;DHT22;8261;47.678;-122.174;2022-07-11T03:45:40;21.60;99.90
16305;DHT22;8261;47.678;-122.174;2022-07-11T03:51:27;21.50;99.90
16305;DHT22;8261;47.678;-122.174;2022-07-11T03:54:33;21.40;99.90
16305;DHT22;8261;47.678;-122.174;2022-07-11T03:57:37;21.30;99.90
16305;DHT22;8261;47.678;-122.174;2022-07-11T04:00:16;20.90;99.90
16305;DHT22;8261;47.678;-122.174;2022-07-11T04:03:09;20.40;99.90
16305;DHT22;8261;47.678;-122.174;2022-07-11T04:06:08;20.30;99.90
16305;DHT22;8261;47.678;-122.174;2022-07-11T04:09:09;20.30;99.90
16305;DHT22;8261;47.678;-122.174;2022-07-11T04:12:07;20.20;99.90
16305;DHT22;8261;47.678;-122.174;2022-07-11T04:14:41;20.20;99.90
16305;DHT22;8261;47.678;-122.174;2022-07-11T04:17:16;20.20;99.90
16305;DHT22;8261;47.678;-122.174;2022-07-11T04:19:48;20.20;99.90
16305;DHT22;8261;47.678;-122.174;2022-07-11T04:22:19;20.10;99.90
16305;DHT22;8261;47.678;-122.174;2022-07-11T04:24:53;20.10;99.90
16305;DHT22;8261;47.678;-122.174;2022-07-11T04:27:25;20.00;99.90
16305;DHT22;8261;47.678;-122.174;2022-07-11T04:30:11;19.90;99.90
16305;DHT22;8261;47.678;-122.174;2022-07-11T04:32:44;19.80;99.90
16305;DHT22;8261;47.678;-122.174;2022-07-11T04:35:18;19.90;99.90
16305;DHT22;8261;47.678;-122.174;2022-07-11T04:38:23;19.90;99.90
16305;DHT22;8261;47.678;-122.174;2022-07-11T04:41:10;19.80;99.90
16305;DHT22;8261;47.678;-122.174;2022-07-11T04:46:21;19.80;99.90
16305;DHT22;8261;47.678;-122.174;2022-07-11T04:48:58;19.80;99.90
16305;DHT22;8261;47.678;-122.174;2022-07-11T04:51:34;19.70;99.90
16305;DHT22;8261;47.678;-122.174;2022-07-11T04:54:20;19.70;99.90
16305;DHT22;8261;47.678;-122.174;2022-07-11T04:57:17;19.60;99.90
16305;DHT22;8261;47.678;-122.174;2022-07-11T04:59:50;19.50;99.90
16305;DHT22;8261;47.678;-122.174;2022-07-11T05:02:36;19.50;99.90
16305;DHT22;8261;47.678;-122.174;2022-07-11T05:05:12;19.50;99.90
16305;DHT22;8261;47.678;-122.174;2022-07-11T05:07:46;19.50;99.90
16305;DHT22;8261;47.678;-122.174;2022-07-11T05:10:18;19.40;99.90
16305;DHT22;8261;47.678;-122.174;2022-07-11T05:12:50;19.40;99.90
16305;DHT22;8261;47.678;-122.174;2022-07-11T05:15:22;19.30;99.90
16305;DHT22;8261;47.678;-122.174;2022-07-11T05:17:59;19.30;99.90
16305;DHT22;8261;47.678;-122.174;2022-07-11T05:20:31;19.30;99.90
16305;DHT22;8261;47.678;-122.174;2022-07-11T05:23:34;19.20;99.90
16305;DHT22;8261;47.678;-122.174;2022-07-11T05:26:40;19.20;99.90
16305;DHT22;8261;47.678;-122.174;2022-07-11T05:29:59;19.10;99.90
16305;DHT22;8261;47.678;-122.174;2022-07-11T05:36:45;19.00;99.90
16305;DHT22;8261;47.678;-122.174;2022-07-11T05:39:19;18.90;99.90
16305;DHT22;8261;47.678;-122.174;2022-07-11T05:41:54;18.90;99.90
16305;DHT22;8261;47.678;-122.174;2022-07-11T05:44:28;18.80;99.90
16305;DHT22;8261;47.678;-122.174;2022-07-11T05:47:13;18.70;99.90
16305;DHT22;8261;47.678;-122.174;2022-07-11T05:49:45;18.60;99.90
16305;DHT22;8261;47.678;-122.174;2022-07-11T05:52:19;18.50;99.90
16305;DHT22;8261;47.678;-122.174;2022-07-11T05:54:53;18.50;99.90
16305;DHT22;8261;47.678;-122.174;2022-07-11T05:57:25;18.50;99.90
16305;DHT22;8261;47.678;-122.174;2022-07-11T06:00:24;18.40;99.90
16305;DHT22;8261;47.678;-122.174;2022-07-11T06:02:56;18.40;99.90
16305;DHT22;8261;47.678;-122.174;2022-07-11T06:05:28;18.30;99.90
16305;DHT22;8261;47.678;-122.174;2022-07-11T06:08:04;18.30;99.90
16305;DHT22;8261;47.678;-122.174;2022-07-11T06:10:53;18.20;99.90
16305;DHT22;8261;47.678;-122.174;2022-07-11T06:13:25;18.10;99.90
16305;DHT22;8261;47.678;-122.174;2022-07-11T06:15:58;18.10;99.90
16305;DHT22;8261;47.678;-122.174;2022-07-11T06:18:47;18.10;99.90
16305;DHT22;8261;47.678;-122.174;2022-07-11T06:21:29;18.10;99.90
16305;DHT22;8261;47.678;-122.174;2022-07-11T06:24:06;18.10;99.90
16305;DHT22;8261;47.678;-122.174;2022-07-11T06:26:38;18.00;99.90
16305;DHT22;8261;47.678;-122.174;2022-07-11T06:29:16;18.00;99.90
16305;DHT22;8261;47.678;-122.174;2022-07-11T06:31:52;17.90;99.90
16305;DHT22;8261;47.678;-122.174;2022-07-11T06:34:33;18.00;99.90
16305;DHT22;8261;47.678;-122.174;2022-07-11T06:37:21;18.00;99.90
16305;DHT22;8261;47.678;-122.174;2022-07-11T06:39:57;17.90;99.90
16305;DHT22;8261;47.678;-122.174;2022-07-11T06:42:30;17.90;99.90
16305;DHT22;8261;47.678;-122.174;2022-07-11T06:45:28;17.90;99.90
16305;DHT22;8261;47.678;-122.174;2022-07-11T06:48:16;17.80;99.90
16305;DHT22;8261;47.678;-122.174;2022-07-11T06:51:16;17.70;99.90
16305;DHT22;8261;47.678;-122.174;2022-07-11T06:54:14;17.70;99.90
16305;DHT22;8261;47.678;-122.174;2022-07-11T07:00:49;17.60;99.90
16305;DHT22;8261;47.678;-122.174;2022-07-11T07:03:38;17.60;99.90
16305;DHT22;8261;47.678;-122.174;2022-07-11T07:06:26;17.60;99.90
16305;DHT22;8261;47.678;-122.174;2022-07-11T07:09:13;17.60;99.90
16305;DHT22;8261;47.678;-122.174;2022-07-11T07:12:10;17.60;99.90
16305;DHT22;8261;47.678;-122.174;2022-07-11T07:14:44;17.50;99.90
16305;DHT22;8261;47.678;-122.174;2022-07-11T07:17:19;17.50;99.90
16305;DHT22;8261;47.678;-122.174;2022-07-11T07:19:55;17.50;99.90
16305;DHT22;8261;47.678;-122.174;2022-07-11T07:22:28;17.50;99.90
16305;DHT22;8261;47.678;-122.174;2022-07-11T07:25:11;17.40;99.90
16305;DHT22;8261;47.678;-122.174;2022-07-11T07:27:42;17.40;99.90
16305;DHT22;8261;47.678;-122.174;2022-07-11T07:30:14;17.40;99.90
16305;DHT22;8261;47.678;-122.174;2022-07-11T07:32:48;17.40;99.90
16305;DHT22;8261;47.678;-122.174;2022-07-11T07:40:31;17.30;99.90
16305;DHT22;8261;47.678;-122.174;2022-07-11T07:43:06;17.20;99.90
16305;DHT22;8261;47.678;-122.174;2022-07-11T07:45:39;17.20;99.90
16305;DHT22;8261;47.678;-122.174;2022-07-11T07:48:13;17.20;99.90
16305;DHT22;8261;47.678;-122.174;2022-07-11T07:50:45;17.10;99.90
16305;DHT22;8261;47.678;-122.174;2022-07-11T07:53:17;17.10;99.90
16305;DHT22;8261;47.678;-122.174;2022-07-11T07:55:51;17.10;99.90
16305;DHT22;8261;47.678;-122.174;2022-07-11T07:58:24;17.00;99.90
16305;DHT22;8261;47.678;-122.174;2022-07-11T08:00:59;17.00;99.90
16305;DHT22;8261;47.678;-122.174;2022-07-11T08:03:54;17.00;99.90
16305;DHT22;8261;47.678;-122.174;2022-07-11T08:09:50;16.90;99.90
16305;DHT22;8261;47.678;-122.174;2022-07-11T08:12:23;16.90;99.90
16305;DHT22;8261;47.678;-122.174;2022-07-11T08:14:54;16.90;99.90
16305;DHT22;8261;47.678;-122.174;2022-07-11T08:17:26;16.80;99.90
16305;DHT22;8261;47.678;-122.174;2022-07-11T08:20:05;16.70;99.90
16305;DHT22;8261;47.678;-122.174;2022-07-11T08:22:50;16.70;99.90
16305;DHT22;8261;47.678;-122.174;2022-07-11T08:25:22;16.60;99.90
16305;DHT22;8261;47.678;-122.174;2022-07-11T08:27:53;16.60;99.90
16305;DHT22;8261;47.678;-122.174;2022-07-11T08:30:26;16.50;99.90
16305;DHT22;8261;47.678;-122.174;2022-07-11T08:32:57;16.50;99.90
16305;DHT22;8261;47.678;-122.174;2022-07-11T08:39:02;16.30;99.90
16305;DHT22;8261;47.678;-122.174;2022-07-11T08:42:00;16.20;99.90
16305;DHT22;8261;47.678;-122.174;2022-07-11T08:44:32;16.20;99.90
16305;DHT22;8261;47.678;-122.174;2022-07-11T08:47:12;16.10;99.90
16305;DHT22;8261;47.678;-122.174;2022-07-11T08:49:49;16.10;99.90
16305;DHT22;8261;47.678;-122.174;2022-07-11T08:52:20;16.00;99.90
16305;DHT22;8261;47.678;-122.174;2022-07-11T08:54:55;15.90;99.90
16305;DHT22;8261;47.678;-122.174;2022-07-11T08:57:26;15.90;99.90
16305;DHT22;8261;47.678;-122.174;2022-07-11T08:59:59;15.80;99.90
16305;DHT22;8261;47.678;-122.174;2022-07-11T09:02:32;15.80;99.90
16305;DHT22;8261;47.678;-122.174;2022-07-11T09:05:07;15.70;99.90
16305;DHT22;8261;47.678;-122.174;2022-07-11T09:07:43;15.70;99.90
16305;DHT22;8261;47.678;-122.174;2022-07-11T09:10:18;15.70;99.90
16305;DHT22;8261;47.678;-122.174;2022-07-11T09:13:01;15.70;99.90
16305;DHT22;8261;47.678;-122.174;2022-07-11T09:15:34;15.70;99.90
16305;DHT22;8261;47.678;-122.174;2022-07-11T09:18:34;15.70;99.90
16305;DHT22;8261;47.678;-122.174;2022-07-11T09:21:08;15.60;99.90
16305;DHT22;8261;47.678;-122.174;2022-07-11T09:23:57;15.60;99.90
16305;DHT22;8261;47.678;-122.174;2022-07-11T09:26:51;15.50;99.90
16305;DHT22;8261;47.678;-122.174;2022-07-11T09:29:25;15.50;99.90
16305;DHT22;8261;47.678;-122.174;2022-07-11T09:31:58;15.50;99.90
16305;DHT22;8261;47.678;-122.174;2022-07-11T09:34:29;15.50;99.90
16305;DHT22;8261;47.678;-122.174;2022-07-11T09:42:16;15.30;99.90
16305;DHT22;8261;47.678;-122.174;2022-07-11T09:44:47;15.30;99.90
16305;DHT22;8261;47.678;-122.174;2022-07-11T09:47:22;15.20;99.90
16305;DHT22;8261;47.678;-122.174;2022-07-11T09:49:54;15.30;99.90
16305;DHT22;8261;47.678;-122.174;2022-07-11T09:52:27;15.20;99.90
16305;DHT22;8261;47.678;-122.174;2022-07-11T09:55:16;15.20;99.90
16305;DHT22;8261;47.678;-122.174;2022-07-11T09:58:10;15.30;99.90
16305;DHT22;8261;47.678;-122.174;2022-07-11T10:00:45;15.20;99.90
16305;DHT22;8261;47.678;-122.174;2022-07-11T10:03:17;15.20;99.90
16305;DHT22;8261;47.678;-122.174;2022-07-11T10:14:15;15.10;99.90
16305;DHT22;8261;47.678;-122.174;2022-07-11T10:16:57;15.10;99.90
16305;DHT22;8261;47.678;-122.174;2022-07-11T10:19:39;15.10;99.90
16305;DHT22;8261;47.678;-122.174;2022-07-11T10:22:26;15.00;99.90
16305;DHT22;8261;47.678;-122.174;2022-07-11T10:25:04;15.00;99.90
16305;DHT22;8261;47.678;-122.174;2022-07-11T10:30:51;15.00;99.90
16305;DHT22;8261;47.678;-122.174;2022-07-11T10:33:31;15.00;99.90
16305;DHT22;8261;47.678;-122.174;2022-07-11T10:53:25;15.00;99.90
16305;DHT22;8261;47.678;-122.174;2022-07-11T10:56:05;15.00;99.90
16305;DHT22;8261;47.678;-122.174;2022-07-11T10:59:06;15.00;99.90
16305;DHT22;8261;47.678;-122.174;2022-07-11T11:04:50;15.00;99.90
16305;DHT22;8261;47.678;-122.174;2022-07-11T11:08:07;15.10;99.90
16305;DHT22;8261;47.678;-122.174;2022-07-11T11:14:36;15.10;99.90
16305;DHT22;8261;47.678;-122.174;2022-07-11T11:19:55;15.00;99.90
16305;DHT22;8261;47.678;-122.174;2022-07-11T11:22:38;15.00;99.90
16305;DHT22;8261;47.678;-122.174;2022-07-11T11:25:12;15.00;99.90
16305;DHT22;8261;47.678;-122.174;2022-07-11T11:28:02;15.00;99.90
16305;DHT22;8261;47.678;-122.174;2022-07-11T11:30:38;14.90;99.90
16305;DHT22;8261;47.678;-122.174;2022-07-11T11:33:26;14.90;99.90
16305;DHT22;8261;47.678;-122.174;2022-07-11T11:36:01;14.90;99.90
16305;DHT22;8261;47.678;-122.174;2022-07-11T11:38:34;14.90;99.90
16305;DHT22;8261;47.678;-122.174;2022-07-11T11:41:22;14.90;99.90
16305;DHT22;8261;47.678;-122.174;2022-07-11T11:43:55;14.90;99.90
16305;DHT22;8261;47.678;-122.174;2022-07-11T11:46:30;14.90;99.90
16305;DHT22;8261;47.678;-122.174;2022-07-11T11:49:04;14.80;99.90
16305;DHT22;8261;47.678;-122.174;2022-07-11T11:51:36;14.80;99.90
16305;DHT22;8261;47.678;-122.174;2022-07-11T11:54:08;14.70;99.90
16305;DHT22;8261;47.678;-122.174;2022-07-11T11:56:39;14.80;99.90
16305;DHT22;8261;47.678;-122.174;2022-07-11T11:59:12;14.70;99.90
16305;DHT22;8261;47.678;-122.174;2022-07-11T12:01:48;14.70;99.90
16305;DHT22;8261;47.678;-122.174;2022-07-11T12:04:20;14.70;99.90
16305;DHT22;8261;47.678;-122.174;2022-07-11T12:06:52;14.60;99.90
16305;DHT22;8261;47.678;-122.174;2022-07-11T12:09:25;14.60;99.90
16305;DHT22;8261;47.678;-122.174;2022-07-11T12:12:11;14.50;99.90
16305;DHT22;8261;47.678;-122.174;2022-07-11T12:14:59;14.50;99.90
16305;DHT22;8261;47.678;-122.174;2022-07-11T12:17:35;14.50;99.90
16305;DHT22;8261;47.678;-122.174;2022-07-11T12:20:08;14.50;99.90
16305;DHT22;8261;47.678;-122.174;2022-07-11T12:22:42;14.50;99.90
16305;DHT22;8261;47.678;-122.174;2022-07-11T12:25:14;14.50;99.90
16305;DHT22;8261;47.678;-122.174;2022-07-11T12:27:47;14.50;99.90
16305;DHT22;8261;47.678;-122.174;2022-07-11T12:30:23;14.40;99.90
16305;DHT22;8261;47.678;-122.174;2022-07-11T12:33:17;14.40;99.90
16305;DHT22;8261;47.678;-122.174;2022-07-11T12:35:59;14.40;99.90
16305;DHT22;8261;47.678;-122.174;2022-07-11T12:38:47;14.40;99.90
16305;DHT22;8261;47.678;-122.174;2022-07-11T12:41:22;14.40;99.90
16305;DHT22;8261;47.678;-122.174;2022-07-11T12:43:53;14.40;99.90
16305;DHT22;8261;47.678;-122.174;2022-07-11T12:46:43;14.40;99.90
16305;DHT22;8261;47.678;-122.174;2022-07-11T12:49:19;14.40;99.90
16305;DHT22;8261;47.678;-122.174;2022-07-11T12:51:58;14.40;99.90
16305;DHT22;8261;47.678;-122.174;2022-07-11T12:54:32;14.40;99.90
16305;DHT22;8261;47.678;-122.174;2022-07-11T12:57:06;14.50;99.90
16305;DHT22;8261;47.678;-122.174;2022-07-11T12:59:40;14.50;99.90
16305;DHT22;8261;47.678;-122.174;2022-07-11T13:02:13;14.50;99.90
16305;DHT22;8261;47.678;-122.174;2022-07-11T13:04:50;14.60;99.90
16305;DHT22;8261;47.678;-122.174;2022-07-11T13:07:28;14.60;99.90
16305;DHT22;8261;47.678;-122.174;2022-07-11T13:10:19;14.70;99.90
16305;DHT22;8261;47.678;-122.174;2022-07-11T13:12:51;14.70;99.90
16305;DHT22;8261;47.678;-122.174;2022-07-11T13:15:23;14.60;99.90
16305;DHT22;8261;47.678;-122.174;2022-07-11T13:17:56;14.70;99.90
16305;DHT22;8261;47.678;-122.174;2022-07-11T13:20:32;14.70;99.90
16305;DHT22;8261;47.678;-122.174;2022-07-11T13:23:04;14.70;99.90
16305;DHT22;8261;47.678;-122.174;2022-07-11T13:25:42;14.70;99.90
16305;DHT22;8261;47.678;-122.174;2022-07-11T13:28:13;14.70;99.90
16305;DHT22;8261;47.678;-122.174;2022-07-11T13:30:46;14.80;99.90
16305;DHT22;8261;47.678;-122.174;2022-07-11T13:33:38;14.80;99.90
16305;DHT22;8261;47.678;-122.174;2022-07-11T13:36:17;14.80;99.90
16305;DHT22;8261;47.678;-122.174;2022-07-11T13:38:49;14.80;99.90
16305;DHT22;8261;47.678;-122.174;2022-07-11T13:41:20;14.90;99.90
16305;DHT22;8261;47.678;-122.174;2022-07-11T13:43:53;14.90;99.90
16305;DHT22;8261;47.678;-122.174;2022-07-11T13:46:25;14.90;99.90
16305;DHT22;8261;47.678;-122.174;2022-07-11T13:48:57;15.00;99.90
16305;DHT22;8261;47.678;-122.174;2022-07-11T13:51:33;15.00;99.90
16305;DHT22;8261;47.678;-122.174;2022-07-11T13:54:08;15.00;99.90
16305;DHT22;8261;47.678;-122.174;2022-07-11T13:56:43;15.00;99.90
16305;DHT22;8261;47.678;-122.174;2022-07-11T13:59:14;15.10;99.90
16305;DHT22;8261;47.678;-122.174;2022-07-11T14:01:49;15.10;99.90
16305;DHT22;8261;47.678;-122.174;2022-07-11T14:04:23;15.20;99.90
16305;DHT22;8261;47.678;-122.174;2022-07-11T14:06:58;15.20;99.90
16305;DHT22;8261;47.678;-122.174;2022-07-11T14:09:31;15.30;99.90
16305;DHT22;8261;47.678;-122.174;2022-07-11T14:12:05;15.30;99.90
16305;DHT22;8261;47.678;-122.174;2022-07-11T14:14:36;15.30;99.90
16305;DHT22;8261;47.678;-122.174;2022-07-11T14:17:07;15.40;99.90
16305;DHT22;8261;47.678;-122.174;2022-07-11T14:19:41;15.40;99.90
16305;DHT22;8261;47.678;-122.174;2022-07-11T14:22:17;15.40;99.90
16305;DHT22;8261;47.678;-122.174;2022-07-11T14:24:49;15.50;99.90
16305;DHT22;8261;47.678;-122.174;2022-07-11T14:27:23;15.50;99.90
16305;DHT22;8261;47.678;-122.174;2022-07-11T14:29:55;15.50;99.90
16305;DHT22;8261;47.678;-122.174;2022-07-11T14:32:27;15.50;99.90
16305;DHT22;8261;47.678;-122.174;2022-07-11T14:35:00;15.50;99.90
16305;DHT22;8261;47.678;-122.174;2022-07-11T14:37:47;15.60;99.90
16305;DHT22;8261;47.678;-122.174;2022-07-11T14:40:21;15.60;99.90
16305;DHT22;8261;47.678;-122.174;2022-07-11T14:42:56;15.70;99.90
16305;DHT22;8261;47.678;-122.174;2022-07-11T14:45:27;15.80;99.90
16305;DHT22;8261;47.678;-122.174;2022-07-11T14:48:00;16.10;99.90
16305;DHT22;8261;47.678;-122.174;2022-07-11T14:50:35;16.80;99.90
16305;DHT22;8261;47.678;-122.174;2022-07-11T14:53:36;17.60;99.90
16305;DHT22;8261;47.678;-122.174;2022-07-11T14:56:11;18.30;99.90
16305;DHT22;8261;47.678;-122.174;2022-07-11T14:59:01;18.90;99.90
16305;DHT22;8261;47.678;-122.174;2022-07-11T15:01:39;19.30;99.90
16305;DHT22;8261;47.678;-122.174;2022-07-11T15:04:10;19.70;99.90
16305;DHT22;8261;47.678;-122.174;2022-07-11T15:06:55;20.10;99.90
16305;DHT22;8261;47.678;-122.174;2022-07-11T15:13:22;20.60;99.90
16305;DHT22;8261;47.678;-122.174;2022-07-11T15:16:19;20.80;99.90
16305;DHT22;8261;47.678;-122.174;2022-07-11T15:19:15;21.10;99.90
16305;DHT22;8261;47.678;-122.174;2022-07-11T15:21:51;21.30;99.90
16305;DHT22;8261;47.678;-122.174;2022-07-11T15:24:38;21.50;99.90
16305;DHT22;8261;47.678;-122.174;2022-07-11T15:27:31;21.40;99.90
16305;DHT22;8261;47.678;-122.174;2022-07-11T15:30:10;21.40;99.90
16305;DHT22;8261;47.678;-122.174;2022-07-11T15:32:49;21.60;99.90
16305;DHT22;8261;47.678;-122.174;2022-07-11T15:35:35;21.90;99.90
16305;DHT22;8261;47.678;-122.174;2022-07-11T15:38:34;21.70;99.90
16305;DHT22;8261;47.678;-122.174;2022-07-11T15:41:30;21.00;99.90
16305;DHT22;8261;47.678;-122.174;2022-07-11T15:44:20;20.60;99.90
16305;DHT22;8261;47.678;-122.174;2022-07-11T15:47:21;20.40;99.90
16305;DHT22;8261;47.678;-122.174;2022-07-11T15:50:06;20.20;99.90
16305;DHT22;8261;47.678;-122.174;2022-07-11T15:53:19;20.00;99.90
16305;DHT22;8261;47.678;-122.174;2022-07-11T15:56:05;19.80;99.90
16305;DHT22;8261;47.678;-122.174;2022-07-11T15:58:41;19.70;99.90
16305;DHT22;8261;47.678;-122.174;2022-07-11T16:01:14;19.60;99.90
16305;DHT22;8261;47.678;-122.174;2022-07-11T16:04:09;19.60;99.90
16305;DHT22;8261;47.678;-122.174;2022-07-11T16:06:46;19.60;99.90
16305;DHT22;8261;47.678;-122.174;2022-07-11T16:09:28;19.60;99.90
16305;DHT22;8261;47.678;-122.174;2022-07-11T16:12:02;19.60;99.90
16305;DHT22;8261;47.678;-122.174;2022-07-11T16:14:39;19.70;99.90
16305;DHT22;8261;47.678;-122.174;2022-07-11T16:17:15;19.80;99.90
16305;DHT22;8261;47.678;-122.174;2022-07-11T16:20:04;19.90;99.90
16305;DHT22;8261;47.678;-122.174;2022-07-11T16:22:50;20.00;99.90
16305;DHT22;8261;47.678;-122.174;2022-07-11T16:25:25;20.10;99.90
16305;DHT22;8261;47.678;-122.174;2022-07-11T16:27:58;20.10;99.90
16305;DHT22;8261;47.678;-122.174;2022-07-11T16:30:34;20.20;99.90
16305;DHT22;8261;47.678;-122.174;2022-07-11T16:33:06;20.20;99.90
16305;DHT22;8261;47.678;-122.174;2022-07-11T16:35:44;20.10;99.90
16305;DHT22;8261;47.678;-122.174;2022-07-11T16:38:18;20.20;99.90
16305;DHT22;8261;47.678;-122.174;2022-07-11T16:41:04;20.20;99.90
16305;DHT22;8261;47.678;-122.174;2022-07-11T16:43:53;20.30;99.90
16305;DHT22;8261;47.678;-122.174;2022-07-11T16:46:28;20.40;99.90
16305;DHT22;8261;47.678;-122.174;2022-07-11T16:49:08;20.60;99.90
16305;DHT22;8261;47.678;-122.174;2022-07-11T16:51:43;20.70;99.90
16305;DHT22;8261;47.678;-122.174;2022-07-11T16:54:26;20.70;99.90
16305;DHT22;8261;47.678;-122.174;2022-07-11T16:57:23;20.90;99.90
16305;DHT22;8261;47.678;-122.174;2022-07-11T17:00:18;20.90;99.90
16305;DHT22;8261;47.678;-122.174;2022-07-11T17:02:57;20.90;99.90
16305;DHT22;8261;47.678;-122.174;2022-07-11T17:06:00;21.10;99.90
16305;DHT22;8261;47.678;-122.174;2022-07-11T17:08:53;21.20;99.90
16305;DHT22;8261;47.678;-122.174;2022-07-11T17:11:26;21.30;99.90
16305;DHT22;8261;47.678;-122.174;2022-07-11T17:14:13;21.40;99.90
16305;DHT22;8261;47.678;-122.174;2022-07-11T17:17:11;21.40;99.90
16305;DHT22;8261;47.678;-122.174;2022-07-11T17:20:09;21.30;99.90
16305;DHT22;8261;47.678;-122.174;2022-07-11T17:22:43;21.40;99.90
16305;DHT22;8261;47.678;-122.174;2022-07-11T17:25:27;21.60;99.90
16305;DHT22;8261;47.678;-122.174;2022-07-11T17:27:58;21.80;99.90
16305;DHT22;8261;47.678;-122.174;2022-07-11T17:30:35;21.90;99.90
16305;DHT22;8261;47.678;-122.174;2022-07-11T17:33:08;22.10;99.90
16305;DHT22;8261;47.678;-122.174;2022-07-11T17:35:43;22.10;99.90
16305;DHT22;8261;47.678;-122.174;2022-07-11T17:38:26;22.20;99.90
16305;DHT22;8261;47.678;-122.174;2022-07-11T17:41:15;22.30;99.90
16305;DHT22;8261;47.678;-122.174;2022-07-11T17:44:01;22.40;99.90
16305;DHT22;8261;47.678;-122.174;2022-07-11T17:46:46;22.60;99.90
16305;DHT22;8261;47.678;-122.174;2022-07-11T17:49:34;22.80;99.90